sensor_id;sensor_type;location;lat;lon;timestamp;temperature;humidity
28374;DHT22;15616;40.148;-102.718;2022-09-09T00:00:21;25.30;51.20
28374;DHT22;15616;40.148;-102.718;2022-09-09T00:03:34;25.30;51.20
28374;DHT22;15616;40.148;-102.718;2022-09-09T00:05:48;25.30;51.20
28374;DHT22;15616;40.148;-102.718;2022-09-09T00:08:21;25.30;51.20
28374;DHT22;15616;40.148;-102.718;2022-09-09T00:11:00;25.30;51.20
28374;DHT22;15616;40.148;-102.718;2022-09-09T00:13:37;25.30;51.20
28374;DHT22;15616;40.148;-102.718;2022-09-09T00:21:34;25.30;51.20
28374;DHT22;15616;40.148;-102.718;2022-09-09T00:24:08;25.30;51.20
28374;DHT22;15616;40.148;-102.718;2022-09-09T00:26:47;25.30;51.20
28374;DHT22;15616;40.148;-102.718;2022-09-09T00:29:29;25.30;51.20
28374;DHT22;15616;40.148;-102.718;2022-09-09T00:32:07;25.30;51.20
28374;DHT22;15616;40.148;-102.718;2022-09-09T00:35:14;25.30;51.30
28374;DHT22;15616;40.148;-102.718;2022-09-09T00:37:32;25.30;51.30
28374;DHT22;15616;40.148;-102.718;2022-09-09T00:40:02;25.20;51.30
28374;DHT22;15616;40.148;-102.718;2022-09-09T00:42:41;25.20;51.30
28374;DHT22;15616;40.148;-102.718;2022-09-09T00:45:37;25.30;51.30
28374;DHT22;15616;40.148;-102.718;2022-09-09T00:48:11;25.30;51.30
28374;DHT22;15616;40.148;-102.718;2022-09-09T00:50:57;25.20;51.30
28374;DHT22;15616;40.148;-102.718;2022-09-09T00:54:05;25.30;51.30
28374;DHT22;15616;40.148;-102.718;2022-09-09T00:56:49;25.30;51.30
28374;DHT22;15616;40.148;-102.718;2022-09-09T01:01:57;25.20;51.30
28374;DHT22;15616;40.148;-102.718;2022-09-09T01:04:33;25.20;51.30
28374;DHT22;15616;40.148;-102.718;2022-09-09T01:07:17;25.20;51.20
28374;DHT22;15616;40.148;-102.718;2022-09-09T01:09:57;25.30;51.30
28374;DHT22;15616;40.148;-102.718;2022-09-09T01:12:43;25.30;51.20
28374;DHT22;15616;40.148;-102.718;2022-09-09T01:15:22;25.30;51.20
28374;DHT22;15616;40.148;-102.718;2022-09-09T01:18:06;25.30;51.20
28374;DHT22;15616;40.148;-102.718;2022-09-09T01:20:38;25.30;51.20
28374;DHT22;15616;40.148;-102.718;2022-09-09T01:28:36;25.30;51.20
28374;DHT22;15616;40.148;-102.718;2022-09-09T01:31:06;25.20;51.20
28374;DHT22;15616;40.148;-102.718;2022-09-09T01:33:34;25.20;51.30
28374;DHT22;15616;40.148;-102.718;2022-09-09T01:36:11;25.20;51.20
28374;DHT22;15616;40.148;-102.718;2022-09-09T01:38:38;25.20;51.20
28374;DHT22;15616;40.148;-102.718;2022-09-09T01:41:04;25.20;51.20
28374;DHT22;15616;40.148;-102.718;2022-09-09T01:43:30;25.20;51.20
28374;DHT22;15616;40.148;-102.718;2022-09-09T01:45:59;25.20;51.20
28374;DHT22;15616;40.148;-102.718;2022-09-09T01:48:26;25.20;51.20
28374;DHT22;15616;40.148;-102.718;2022-09-09T01:50:53;25.20;51.20
28374;DHT22;15616;40.148;-102.718;2022-09-09T01:53:20;25.20;51.20
28374;DHT22;15616;40.148;-102.718;2022-09-09T02:04:04;25.20;51.30
28374;DHT22;15616;40.148;-102.718;2022-09-09T02:06:40;25.20;51.30
28374;DHT22;15616;40.148;-102.718;2022-09-09T02:09:08;25.20;51.30
28374;DHT22;15616;40.148;-102.718;2022-09-09T02:11:36;25.20;51.30
28374;DHT22;15616;40.148;-102.718;2022-09-09T02:14:09;25.20;51.20
28374;DHT22;15616;40.148;-102.718;2022-09-09T02:16:56;25.20;51.20
28374;DHT22;15616;40.148;-102.718;2022-09-09T02:19:34;25.20;51.20
28374;DHT22;15616;40.148;-102.718;2022-09-09T02:22:01;25.20;51.20
28374;DHT22;15616;40.148;-102.718;2022-09-09T02:24:29;25.10;51.10
28374;DHT22;15616;40.148;-102.718;2022-09-09T02:26:59;25.20;51.20
28374;DHT22;15616;40.148;-102.718;2022-09-09T02:29:33;25.20;51.20
28374;DHT22;15616;40.148;-102.718;2022-09-09T02:32:02;25.20;51.20
28374;DHT22;15616;40.148;-102.718;2022-09-09T02:34:31;25.20;51.20
28374;DHT22;15616;40.148;-102.718;2022-09-09T02:37:01;25.20;51.10
28374;DHT22;15616;40.148;-102.718;2022-09-09T02:39:27;25.20;51.10
28374;DHT22;15616;40.148;-102.718;2022-09-09T02:41:53;25.20;51.20
28374;DHT22;15616;40.148;-102.718;2022-09-09T02:44:22;25.20;51.20
28374;DHT22;15616;40.148;-102.718;2022-09-09T02:55:39;25.10;51.20
28374;DHT22;15616;40.148;-102.718;2022-09-09T02:58:10;25.10;51.20
28374;DHT22;15616;40.148;-102.718;2022-09-09T03:00:39;25.10;51.20
28374;DHT22;15616;40.148;-102.718;2022-09-09T03:03:08;25.10;51.20
28374;DHT22;15616;40.148;-102.718;2022-09-09T03:05:35;25.10;51.20
28374;DHT22;15616;40.148;-102.718;2022-09-09T03:08:02;25.10;51.20
28374;DHT22;15616;40.148;-102.718;2022-09-09T03:10:28;25.10;51.20
28374;DHT22;15616;40.148;-102.718;2022-09-09T03:12:55;25.10;51.20
28374;DHT22;15616;40.148;-102.718;2022-09-09T03:15:21;25.10;51.10
28374;DHT22;15616;40.148;-102.718;2022-09-09T03:17:47;25.10;51.10
28374;DHT22;15616;40.148;-102.718;2022-09-09T03:20:13;25.10;51.20
28374;DHT22;15616;40.148;-102.718;2022-09-09T03:22:39;25.10;51.20
28374;DHT22;15616;40.148;-102.718;2022-09-09T03:25:06;25.10;51.20
28374;DHT22;15616;40.148;-102.718;2022-09-09T03:27:32;25.10;51.20
28374;DHT22;15616;40.148;-102.718;2022-09-09T03:29:58;25.10;51.20
28374;DHT22;15616;40.148;-102.718;2022-09-09T03:32:24;25.10;51.20
28374;DHT22;15616;40.148;-102.718;2022-09-09T03:34:52;25.10;51.10
28374;DHT22;15616;40.148;-102.718;2022-09-09T03:37:21;25.10;51.10
28374;DHT22;15616;40.148;-102.718;2022-09-09T03:39:48;25.10;51.10
28374;DHT22;15616;40.148;-102.718;2022-09-09T03:42:15;25.10;51.10
28374;DHT22;15616;40.148;-102.718;2022-09-09T03:44:45;25.10;51.10
28374;DHT22;15616;40.148;-102.718;2022-09-09T03:47:17;25.10;51.10
28374;DHT22;15616;40.148;-102.718;2022-09-09T03:49:44;25.10;51.10
28374;DHT22;15616;40.148;-102.718;2022-09-09T03:52:10;25.10;51.20
28374;DHT22;15616;40.148;-102.718;2022-09-09T03:54:36;25.10;51.10
28374;DHT22;15616;40.148;-102.718;2022-09-09T03:57:02;25.10;51.10
28374;DHT22;15616;40.148;-102.718;2022-09-09T03:59:29;25.10;51.20
28374;DHT22;15616;40.148;-102.718;2022-09-09T04:01:55;25.10;51.20
28374;DHT22;15616;40.148;-102.718;2022-09-09T04:04:22;25.10;51.10
28374;DHT22;15616;40.148;-102.718;2022-09-09T04:06:48;25.10;51.10
28374;DHT22;15616;40.148;-102.718;2022-09-09T04:09:14;25.10;51.10
28374;DHT22;15616;40.148;-102.718;2022-09-09T04:11:40;25.10;51.10
28374;DHT22;15616;40.148;-102.718;2022-09-09T04:14:06;25.10;51.10
28374;DHT22;15616;40.148;-102.718;2022-09-09T04:16:33;25.10;51.10
28374;DHT22;15616;40.148;-102.718;2022-09-09T04:18:59;25.10;51.10
28374;DHT22;15616;40.148;-102.718;2022-09-09T04:21:26;25.10;51.10
28374;DHT22;15616;40.148;-102.718;2022-09-09T04:23:52;25.10;51.10
28374;DHT22;15616;40.148;-102.718;2022-09-09T04:26:18;25.10;51.20
28374;DHT22;15616;40.148;-102.718;2022-09-09T04:28:45;25.10;51.10
28374;DHT22;15616;40.148;-102.718;2022-09-09T04:31:21;25.10;51.10
28374;DHT22;15616;40.148;-102.718;2022-09-09T04:33:52;25.10;51.10
28374;DHT22;15616;40.148;-102.718;2022-09-09T04:36:19;25.10;51.10
28374;DHT22;15616;40.148;-102.718;2022-09-09T04:38:46;25.10;51.10
28374;DHT22;15616;40.148;-102.718;2022-09-09T04:41:12;25.10;51.10
28374;DHT22;15616;40.148;-102.718;2022-09-09T04:43:39;25.10;51.10
28374;DHT22;15616;40.148;-102.718;2022-09-09T04:46:05;25.10;51.10
28374;DHT22;15616;40.148;-102.718;2022-09-09T04:48:32;25.10;51.10
28374;DHT22;15616;40.148;-102.718;2022-09-09T04:51:03;25.10;51.10
28374;DHT22;15616;40.148;-102.718;2022-09-09T04:53:30;25.10;51.10
28374;DHT22;15616;40.148;-102.718;2022-09-09T04:56:14;25.10;51.10
28374;DHT22;15616;40.148;-102.718;2022-09-09T04:58:40;25.10;51.00
28374;DHT22;15616;40.148;-102.718;2022-09-09T05:01:18;25.10;51.20
28374;DHT22;15616;40.148;-102.718;2022-09-09T05:03:45;25.10;51.20
28374;DHT22;15616;40.148;-102.718;2022-09-09T05:06:14;25.10;51.20
28374;DHT22;15616;40.148;-102.718;2022-09-09T05:08:41;25.10;51.20
28374;DHT22;15616;40.148;-102.718;2022-09-09T05:11:18;25.10;51.20
28374;DHT22;15616;40.148;-102.718;2022-09-09T05:13:45;25.10;51.20
28374;DHT22;15616;40.148;-102.718;2022-09-09T05:16:12;25.00;51.20
28374;DHT22;15616;40.148;-102.718;2022-09-09T05:18:39;25.10;51.30
28374;DHT22;15616;40.148;-102.718;2022-09-09T05:21:07;25.10;51.30
28374;DHT22;15616;40.148;-102.718;2022-09-09T05:23:34;25.10;51.20
28374;DHT22;15616;40.148;-102.718;2022-09-09T05:26:00;25.00;51.20
28374;DHT22;15616;40.148;-102.718;2022-09-09T05:28:27;25.00;51.20
28374;DHT22;15616;40.148;-102.718;2022-09-09T05:31:02;25.00;51.20
28374;DHT22;15616;40.148;-102.718;2022-09-09T05:33:35;25.00;51.20
28374;DHT22;15616;40.148;-102.718;2022-09-09T05:36:04;25.00;51.20
28374;DHT22;15616;40.148;-102.718;2022-09-09T05:38:31;25.00;51.30
28374;DHT22;15616;40.148;-102.718;2022-09-09T05:41:02;25.00;51.30
28374;DHT22;15616;40.148;-102.718;2022-09-09T05:43:29;25.00;51.20
28374;DHT22;15616;40.148;-102.718;2022-09-09T05:46:09;25.10;51.30
28374;DHT22;15616;40.148;-102.718;2022-09-09T05:48:38;25.10;51.30
28374;DHT22;15616;40.148;-102.718;2022-09-09T05:51:06;25.10;51.30
28374;DHT22;15616;40.148;-102.718;2022-09-09T05:53:33;25.00;51.20
28374;DHT22;15616;40.148;-102.718;2022-09-09T05:56:07;25.10;51.30
28374;DHT22;15616;40.148;-102.718;2022-09-09T05:58:35;25.00;51.20
28374;DHT22;15616;40.148;-102.718;2022-09-09T06:01:08;25.00;51.20
28374;DHT22;15616;40.148;-102.718;2022-09-09T06:03:40;25.00;51.20
28374;DHT22;15616;40.148;-102.718;2022-09-09T06:06:08;25.00;51.30
28374;DHT22;15616;40.148;-102.718;2022-09-09T06:08:36;25.00;51.30
28374;DHT22;15616;40.148;-102.718;2022-09-09T06:11:15;25.00;51.30
28374;DHT22;15616;40.148;-102.718;2022-09-09T06:13:42;25.00;51.30
28374;DHT22;15616;40.148;-102.718;2022-09-09T06:16:10;25.00;51.30
28374;DHT22;15616;40.148;-102.718;2022-09-09T06:18:37;25.00;51.30
28374;DHT22;15616;40.148;-102.718;2022-09-09T06:21:05;25.00;51.30
28374;DHT22;15616;40.148;-102.718;2022-09-09T06:23:33;25.00;51.30
28374;DHT22;15616;40.148;-102.718;2022-09-09T06:26:07;25.00;51.30
28374;DHT22;15616;40.148;-102.718;2022-09-09T06:28:34;25.00;51.40
28374;DHT22;15616;40.148;-102.718;2022-09-09T06:31:05;25.00;51.30
28374;DHT22;15616;40.148;-102.718;2022-09-09T06:33:36;25.10;51.40
28374;DHT22;15616;40.148;-102.718;2022-09-09T06:36:10;25.10;51.30
28374;DHT22;15616;40.148;-102.718;2022-09-09T06:38:37;25.10;51.30
28374;DHT22;15616;40.148;-102.718;2022-09-09T06:41:03;25.10;51.30
28374;DHT22;15616;40.148;-102.718;2022-09-09T06:43:31;25.10;51.40
28374;DHT22;15616;40.148;-102.718;2022-09-09T06:46:06;25.10;51.30
28374;DHT22;15616;40.148;-102.718;2022-09-09T06:48:33;25.10;51.30
28374;DHT22;15616;40.148;-102.718;2022-09-09T06:53:41;25.10;51.30
28374;DHT22;15616;40.148;-102.718;2022-09-09T06:58:42;25.10;51.30
28374;DHT22;15616;40.148;-102.718;2022-09-09T07:01:12;25.10;51.30
28374;DHT22;15616;40.148;-102.718;2022-09-09T07:03:39;25.10;51.30
28374;DHT22;15616;40.148;-102.718;2022-09-09T07:06:06;25.10;51.30
28374;DHT22;15616;40.148;-102.718;2022-09-09T07:08:33;25.10;51.30
28374;DHT22;15616;40.148;-102.718;2022-09-09T07:11:04;25.10;51.40
28374;DHT22;15616;40.148;-102.718;2022-09-09T07:13:31;25.10;51.40
28374;DHT22;15616;40.148;-102.718;2022-09-09T07:16:08;25.10;51.40
28374;DHT22;15616;40.148;-102.718;2022-09-09T07:18:34;25.20;51.40
28374;DHT22;15616;40.148;-102.718;2022-09-09T07:21:01;25.10;51.30
28374;DHT22;15616;40.148;-102.718;2022-09-09T07:23:29;25.20;51.40
28374;DHT22;15616;40.148;-102.718;2022-09-09T07:25:56;25.10;51.30
28374;DHT22;15616;40.148;-102.718;2022-09-09T07:28:22;25.10;51.30
28374;DHT22;15616;40.148;-102.718;2022-09-09T07:30:59;25.10;51.30
28374;DHT22;15616;40.148;-102.718;2022-09-09T07:33:28;25.20;51.30
28374;DHT22;15616;40.148;-102.718;2022-09-09T07:36:07;25.20;51.30
28374;DHT22;15616;40.148;-102.718;2022-09-09T07:38:41;25.20;51.30
28374;DHT22;15616;40.148;-102.718;2022-09-09T07:41:18;25.10;51.30
28374;DHT22;15616;40.148;-102.718;2022-09-09T07:43:46;25.20;51.30
28374;DHT22;15616;40.148;-102.718;2022-09-09T07:46:14;25.20;51.30
28374;DHT22;15616;40.148;-102.718;2022-09-09T07:48:45;25.20;51.30
28374;DHT22;15616;40.148;-102.718;2022-09-09T07:51:14;25.20;51.30
28374;DHT22;15616;40.148;-102.718;2022-09-09T07:53:43;25.20;51.30
28374;DHT22;15616;40.148;-102.718;2022-09-09T07:56:11;25.20;51.30
28374;DHT22;15616;40.148;-102.718;2022-09-09T07:58:39;25.10;51.30
28374;DHT22;15616;40.148;-102.718;2022-09-09T08:01:12;25.10;51.20
28374;DHT22;15616;40.148;-102.718;2022-09-09T08:03:38;25.20;51.30
28374;DHT22;15616;40.148;-102.718;2022-09-09T08:06:06;25.20;51.30
28374;DHT22;15616;40.148;-102.718;2022-09-09T08:08:33;25.20;51.30
28374;DHT22;15616;40.148;-102.718;2022-09-09T08:11:07;25.20;51.30
28374;DHT22;15616;40.148;-102.718;2022-09-09T08:13:36;25.20;51.30
28374;DHT22;15616;40.148;-102.718;2022-09-09T08:16:13;25.20;51.30
28374;DHT22;15616;40.148;-102.718;2022-09-09T08:18:40;25.20;51.20
28374;DHT22;15616;40.148;-102.718;2022-09-09T08:21:15;25.20;51.30
28374;DHT22;15616;40.148;-102.718;2022-09-09T08:23:43;25.20;51.20
28374;DHT22;15616;40.148;-102.718;2022-09-09T08:26:19;25.20;51.20
28374;DHT22;15616;40.148;-102.718;2022-09-09T08:28:53;25.20;51.20
28374;DHT22;15616;40.148;-102.718;2022-09-09T08:31:22;25.30;51.20
28374;DHT22;15616;40.148;-102.718;2022-09-09T08:33:48;25.30;51.20
28374;DHT22;15616;40.148;-102.718;2022-09-09T08:36:17;25.20;51.20
28374;DHT22;15616;40.148;-102.718;2022-09-09T08:38:43;25.30;51.20
28374;DHT22;15616;40.148;-102.718;2022-09-09T08:47:34;25.30;51.10
28374;DHT22;15616;40.148;-102.718;2022-09-09T08:50:24;25.30;51.10
28374;DHT22;15616;40.148;-102.718;2022-09-09T08:58:17;25.20;51.10
28374;DHT22;15616;40.148;-102.718;2022-09-09T09:03:50;25.20;51.10
28374;DHT22;15616;40.148;-102.718;2022-09-09T09:08:59;25.20;51.20
28374;DHT22;15616;40.148;-102.718;2022-09-09T09:11:27;25.20;51.30
28374;DHT22;15616;40.148;-102.718;2022-09-09T09:14:03;25.20;51.40
28374;DHT22;15616;40.148;-102.718;2022-09-09T09:19:19;25.20;51.30
28374;DHT22;15616;40.148;-102.718;2022-09-09T09:21:58;25.20;51.30
28374;DHT22;15616;40.148;-102.718;2022-09-09T09:24:45;25.20;51.20
28374;DHT22;15616;40.148;-102.718;2022-09-09T09:27:34;25.30;51.30
28374;DHT22;15616;40.148;-102.718;2022-09-09T09:30:10;25.20;51.30
28374;DHT22;15616;40.148;-102.718;2022-09-09T09:32:39;25.30;51.30
28374;DHT22;15616;40.148;-102.718;2022-09-09T09:35:13;25.30;51.30
28374;DHT22;15616;40.148;-102.718;2022-09-09T09:37:41;25.30;51.20
28374;DHT22;15616;40.148;-102.718;2022-09-09T09:40:14;25.30;51.30
28374;DHT22;15616;40.148;-102.718;2022-09-09T09:42:53;25.30;51.20
28374;DHT22;15616;40.148;-102.718;2022-09-09T09:45:31;25.30;51.20
28374;DHT22;15616;40.148;-102.718;2022-09-09T09:48:04;25.30;51.20
28374;DHT22;15616;40.148;-102.718;2022-09-09T09:50:32;25.30;51.20
28374;DHT22;15616;40.148;-102.718;2022-09-09T09:53:04;25.30;51.20
28374;DHT22;15616;40.148;-102.718;2022-09-09T09:55:32;25.30;51.20
28374;DHT22;15616;40.148;-102.718;2022-09-09T09:58:06;25.30;51.20
28374;DHT22;15616;40.148;-102.718;2022-09-09T10:00:52;25.30;51.20
28374;DHT22;15616;40.148;-102.718;2022-09-09T10:03:24;25.30;51.20
28374;DHT22;15616;40.148;-102.718;2022-09-09T10:05:50;25.30;51.20
28374;DHT22;15616;40.148;-102.718;2022-09-09T10:08:17;25.30;51.20
28374;DHT22;15616;40.148;-102.718;2022-09-09T10:10:49;25.30;51.20
28374;DHT22;15616;40.148;-102.718;2022-09-09T10:26:54;25.30;51.30
28374;DHT22;15616;40.148;-102.718;2022-09-09T10:29:38;25.30;51.40
28374;DHT22;15616;40.148;-102.718;2022-09-09T10:32:40;25.30;51.40
28374;DHT22;15616;40.148;-102.718;2022-09-09T10:41:06;25.30;51.40
28374;DHT22;15616;40.148;-102.718;2022-09-09T10:49:52;25.30;51.50
28374;DHT22;15616;40.148;-102.718;2022-09-09T10:55:17;25.30;51.50
28374;DHT22;15616;40.148;-102.718;2022-09-09T10:57:45;25.30;51.50
28374;DHT22;15616;40.148;-102.718;2022-09-09T11:00:38;25.30;51.50
28374;DHT22;15616;40.148;-102.718;2022-09-09T11:03:05;25.30;51.50
28374;DHT22;15616;40.148;-102.718;2022-09-09T11:05:36;25.30;51.60
28374;DHT22;15616;40.148;-102.718;2022-09-09T11:08:12;25.30;51.50
28374;DHT22;15616;40.148;-102.718;2022-09-09T11:11:06;25.30;51.50
28374;DHT22;15616;40.148;-102.718;2022-09-09T11:19:38;25.30;51.50
28374;DHT22;15616;40.148;-102.718;2022-09-09T11:36:52;25.40;51.70
28374;DHT22;15616;40.148;-102.718;2022-09-09T11:39:48;25.40;51.70
28374;DHT22;15616;40.148;-102.718;2022-09-09T11:42:23;25.40;51.60
28374;DHT22;15616;40.148;-102.718;2022-09-09T11:44:50;25.40;51.70
28374;DHT22;15616;40.148;-102.718;2022-09-09T11:47:24;25.30;51.60
28374;DHT22;15616;40.148;-102.718;2022-09-09T11:50:40;25.40;51.70
28374;DHT22;15616;40.148;-102.718;2022-09-09T11:52:43;25.30;51.70
28374;DHT22;15616;40.148;-102.718;2022-09-09T11:55:29;25.30;51.70
28374;DHT22;15616;40.148;-102.718;2022-09-09T11:58:17;25.30;51.70
28374;DHT22;15616;40.148;-102.718;2022-09-09T12:00:47;25.30;51.80
28374;DHT22;15616;40.148;-102.718;2022-09-09T12:03:46;25.30;51.80
28374;DHT22;15616;40.148;-102.718;2022-09-09T12:06:32;25.30;51.80
28374;DHT22;15616;40.148;-102.718;2022-09-09T12:11:45;25.30;52.50
28374;DHT22;15616;40.148;-102.718;2022-09-09T12:17:25;25.30;51.80
28374;DHT22;15616;40.148;-102.718;2022-09-09T12:20:10;25.30;51.90
28374;DHT22;15616;40.148;-102.718;2022-09-09T12:28:11;25.30;51.90
28374;DHT22;15616;40.148;-102.718;2022-09-09T12:33:19;25.30;51.90
28374;DHT22;15616;40.148;-102.718;2022-09-09T12:35:56;25.30;51.90
28374;DHT22;15616;40.148;-102.718;2022-09-09T12:38:38;25.30;51.90
28374;DHT22;15616;40.148;-102.718;2022-09-09T12:41:05;25.30;51.90
28374;DHT22;15616;40.148;-102.718;2022-09-09T12:43:31;25.30;51.90
28374;DHT22;15616;40.148;-102.718;2022-09-09T12:46:03;25.30;51.90
28374;DHT22;15616;40.148;-102.718;2022-09-09T12:48:39;25.30;51.90
28374;DHT22;15616;40.148;-102.718;2022-09-09T12:51:21;25.20;52.00
28374;DHT22;15616;40.148;-102.718;2022-09-09T12:53:51;25.20;52.00
28374;DHT22;15616;40.148;-102.718;2022-09-09T12:56:29;25.20;51.90
28374;DHT22;15616;40.148;-102.718;2022-09-09T12:58:57;25.30;52.00
28374;DHT22;15616;40.148;-102.718;2022-09-09T13:01:26;25.20;51.90
28374;DHT22;15616;40.148;-102.718;2022-09-09T13:03:54;25.30;52.70
28374;DHT22;15616;40.148;-102.718;2022-09-09T13:06:31;25.30;51.90
28374;DHT22;15616;40.148;-102.718;2022-09-09T13:08:59;25.30;51.80
28374;DHT22;15616;40.148;-102.718;2022-09-09T13:13:56;25.30;51.90
28374;DHT22;15616;40.148;-102.718;2022-09-09T13:16:29;25.30;51.90
28374;DHT22;15616;40.148;-102.718;2022-09-09T13:19:13;25.30;52.00
28374;DHT22;15616;40.148;-102.718;2022-09-09T13:21:40;25.30;52.00
28374;DHT22;15616;40.148;-102.718;2022-09-09T13:26:55;25.30;51.90
28374;DHT22;15616;40.148;-102.718;2022-09-09T13:29:22;25.30;52.00
28374;DHT22;15616;40.148;-102.718;2022-09-09T13:31:48;25.20;51.90
28374;DHT22;15616;40.148;-102.718;2022-09-09T13:34:32;25.20;51.90
28374;DHT22;15616;40.148;-102.718;2022-09-09T13:37:01;25.30;52.00
28374;DHT22;15616;40.148;-102.718;2022-09-09T13:39:28;25.20;52.00
28374;DHT22;15616;40.148;-102.718;2022-09-09T13:41:54;25.30;51.90
28374;DHT22;15616;40.148;-102.718;2022-09-09T13:44:25;25.30;51.90
28374;DHT22;15616;40.148;-102.718;2022-09-09T13:47:15;25.30;51.90
28374;DHT22;15616;40.148;-102.718;2022-09-09T13:49:44;25.30;51.80
28374;DHT22;15616;40.148;-102.718;2022-09-09T13:52:12;25.30;51.90
28374;DHT22;15616;40.148;-102.718;2022-09-09T13:54:39;25.30;51.90
28374;DHT22;15616;40.148;-102.718;2022-09-09T13:57:14;25.20;51.90
28374;DHT22;15616;40.148;-102.718;2022-09-09T13:59:42;25.30;51.90
28374;DHT22;15616;40.148;-102.718;2022-09-09T14:02:08;25.30;51.90
28374;DHT22;15616;40.148;-102.718;2022-09-09T14:04:34;25.30;51.90
28374;DHT22;15616;40.148;-102.718;2022-09-09T14:07:01;25.30;51.90
28374;DHT22;15616;40.148;-102.718;2022-09-09T14:09:27;25.20;51.80
28374;DHT22;15616;40.148;-102.718;2022-09-09T14:11:53;25.30;51.80
28374;DHT22;15616;40.148;-102.718;2022-09-09T14:14:20;25.30;51.80
28374;DHT22;15616;40.148;-102.718;2022-09-09T14:16:46;25.30;51.80
28374;DHT22;15616;40.148;-102.718;2022-09-09T14:19:13;25.30;51.80
28374;DHT22;15616;40.148;-102.718;2022-09-09T14:21:38;25.30;51.80
28374;DHT22;15616;40.148;-102.718;2022-09-09T14:24:05;25.30;51.80
28374;DHT22;15616;40.148;-102.718;2022-09-09T14:26:31;25.30;51.80
28374;DHT22;15616;40.148;-102.718;2022-09-09T14:28:57;25.30;51.80
28374;DHT22;15616;40.148;-102.718;2022-09-09T14:31:24;25.30;51.90
28374;DHT22;15616;40.148;-102.718;2022-09-09T14:33:50;25.30;51.90
28374;DHT22;15616;40.148;-102.718;2022-09-09T14:36:16;25.30;51.80
28374;DHT22;15616;40.148;-102.718;2022-09-09T14:38:42;25.30;51.70
28374;DHT22;15616;40.148;-102.718;2022-09-09T14:41:14;25.30;51.70
28374;DHT22;15616;40.148;-102.718;2022-09-09T14:43:43;25.30;51.70
28374;DHT22;15616;40.148;-102.718;2022-09-09T14:46:12;25.30;51.80
28374;DHT22;15616;40.148;-102.718;2022-09-09T14:48:38;25.30;51.90
28374;DHT22;15616;40.148;-102.718;2022-09-09T14:51:14;25.30;51.80
28374;DHT22;15616;40.148;-102.718;2022-09-09T14:53:41;25.30;51.80
28374;DHT22;15616;40.148;-102.718;2022-09-09T14:56:10;25.30;51.80
28374;DHT22;15616;40.148;-102.718;2022-09-09T14:58:36;25.30;51.70
28374;DHT22;15616;40.148;-102.718;2022-09-09T15:01:08;25.30;51.70
28374;DHT22;15616;40.148;-102.718;2022-09-09T15:03:36;25.40;51.80
28374;DHT22;15616;40.148;-102.718;2022-09-09T15:06:13;25.40;51.80
28374;DHT22;15616;40.148;-102.718;2022-09-09T15:08:41;25.30;51.60
28374;DHT22;15616;40.148;-102.718;2022-09-09T15:11:08;25.40;51.80
28374;DHT22;15616;40.148;-102.718;2022-09-09T15:13:34;25.40;51.70
28374;DHT22;15616;40.148;-102.718;2022-09-09T15:18:32;25.40;51.70
28374;DHT22;15616;40.148;-102.718;2022-09-09T15:20:59;25.40;51.70
28374;DHT22;15616;40.148;-102.718;2022-09-09T15:23:27;25.40;51.70
28374;DHT22;15616;40.148;-102.718;2022-09-09T15:25:53;25.40;51.70
28374;DHT22;15616;40.148;-102.718;2022-09-09T15:28:20;25.40;51.70
28374;DHT22;15616;40.148;-102.718;2022-09-09T15:30:50;25.40;51.80
28374;DHT22;15616;40.148;-102.718;2022-09-09T15:33:18;25.50;51.80
28374;DHT22;15616;40.148;-102.718;2022-09-09T15:35:44;25.40;51.80
28374;DHT22;15616;40.148;-102.718;2022-09-09T15:38:11;25.40;51.80
28374;DHT22;15616;40.148;-102.718;2022-09-09T15:40:39;25.40;51.80
28374;DHT22;15616;40.148;-102.718;2022-09-09T15:43:06;25.30;51.80
28374;DHT22;15616;40.148;-102.718;2022-09-09T15:45:33;25.30;51.80
28374;DHT22;15616;40.148;-102.718;2022-09-09T15:48:00;25.40;51.90
28374;DHT22;15616;40.148;-102.718;2022-09-09T15:50:26;25.40;52.00
28374;DHT22;15616;40.148;-102.718;2022-09-09T15:52:52;25.30;51.90
28374;DHT22;15616;40.148;-102.718;2022-09-09T15:55:19;25.30;51.90
28374;DHT22;15616;40.148;-102.718;2022-09-09T15:57:46;25.30;51.90
28374;DHT22;15616;40.148;-102.718;2022-09-09T16:00:12;25.30;51.90
28374;DHT22;15616;40.148;-102.718;2022-09-09T16:02:39;25.30;52.00
28374;DHT22;15616;40.148;-102.718;2022-09-09T16:05:05;25.30;52.00
28374;DHT22;15616;40.148;-102.718;2022-09-09T16:07:31;25.30;51.90
28374;DHT22;15616;40.148;-102.718;2022-09-09T16:09:57;25.30;51.90
28374;DHT22;15616;40.148;-102.718;2022-09-09T16:12:23;25.30;51.90
28374;DHT22;15616;40.148;-102.718;2022-09-09T16:14:49;25.30;51.90
28374;DHT22;15616;40.148;-102.718;2022-09-09T16:17:15;25.30;52.00
28374;DHT22;15616;40.148;-102.718;2022-09-09T16:19:41;25.30;51.90
28374;DHT22;15616;40.148;-102.718;2022-09-09T16:22:07;25.30;52.00
28374;DHT22;15616;40.148;-102.718;2022-09-09T16:24:34;25.30;52.00
28374;DHT22;15616;40.148;-102.718;2022-09-09T16:26:59;25.30;52.00
28374;DHT22;15616;40.148;-102.718;2022-09-09T16:29:25;25.30;52.00
28374;DHT22;15616;40.148;-102.718;2022-09-09T16:31:53;25.30;51.90
28374;DHT22;15616;40.148;-102.718;2022-09-09T16:34:20;25.30;52.00
28374;DHT22;15616;40.148;-102.718;2022-09-09T16:36:47;25.30;52.00
28374;DHT22;15616;40.148;-102.718;2022-09-09T16:39:16;25.30;52.00
28374;DHT22;15616;40.148;-102.718;2022-09-09T16:41:43;25.30;52.00
28374;DHT22;15616;40.148;-102.718;2022-09-09T16:44:12;25.30;52.00
28374;DHT22;15616;40.148;-102.718;2022-09-09T16:46:40;25.30;51.90
28374;DHT22;15616;40.148;-102.718;2022-09-09T16:49:11;25.30;52.00
28374;DHT22;15616;40.148;-102.718;2022-09-09T16:51:43;25.30;52.00
28374;DHT22;15616;40.148;-102.718;2022-09-09T16:54:10;25.30;52.00
28374;DHT22;15616;40.148;-102.718;2022-09-09T16:56:39;25.30;52.00
28374;DHT22;15616;40.148;-102.718;2022-09-09T16:59:10;25.30;52.10
28374;DHT22;15616;40.148;-102.718;2022-09-09T17:01:38;25.30;52.10
28374;DHT22;15616;40.148;-102.718;2022-09-09T17:04:17;25.30;52.00
28374;DHT22;15616;40.148;-102.718;2022-09-09T17:06:50;25.30;52.00
28374;DHT22;15616;40.148;-102.718;2022-09-09T17:09:17;25.30;52.00
28374;DHT22;15616;40.148;-102.718;2022-09-09T17:11:44;25.30;52.10
28374;DHT22;15616;40.148;-102.718;2022-09-09T17:14:15;25.30;52.00
28374;DHT22;15616;40.148;-102.718;2022-09-09T17:16:41;25.30;52.00